Latest Coastal Weather Observations for Devonport Airport

IDV60701

Issued at 10:31 pm EST Tuesday 17 September 2019 (issued every 10 minutes, with the page automatically refreshed every 10 minutes)

About coastal observations | Map of coastal stations | Coastal observations for VIC | Marine services | Other Formats
Station Details ID: 091126 Name: DEVONPORT AIRPORT Lat: -41.17 Lon: 146.43 Height: 8.0 m
Data from the previous 72 hours. | See also: Recent months at Devonport Airport
Date/Time
EST
Wind Sea
Height
m
Swell Vis
km
Cloud Weather Temp
°C
Press
hPa
Rain since
9am
mm
Dir  Spd
kts
Gust
kts
Height
m
Period
s
Dir
17/10:30pm W 8 8 - - - - 7 Clear - 5.2 1029.7 0.0
17/10:00pm W 7 9 - - - - 10 - - 4.9 1029.5 0.0
17/09:32pm W 9 10 - - - - 10 - - 4.8 1029.3 0.0
17/09:30pm W 9 10 - - - - 10 - - 4.8 1029.3 0.0
17/09:00pm WSW 6 7 - - - - 6 - - 6.6 1029.2 0.0
17/08:54pm WSW 6 7 - - - - 6 - - 6.9 1029.2 0.0
17/08:30pm W 9 11 - - - - 10 - - 7.3 1029.0 0.0
17/08:00pm W 12 16 - - - - 10 - - 9.1 1028.8 0.0
17/07:30pm WNW 17 20 - - - - 10 - - 10.3 1028.5 0.0
17/07:00pm WNW 18 22 - - - - 10 - - 10.0 1028.4 0.0
17/06:30pm NW 18 21 - - - - 10 - - 9.9 1028.2 0.0
17/06:00pm NW 18 22 - - - - 10 - - 9.9 1028.0 0.0
17/05:30pm WNW 19 24 - - - - 10 - - 10.1 1027.7 0.0
17/05:00pm NW 19 23 - - - - 10 - - 10.5 1027.6 0.0
17/04:30pm NW 19 22 - - - - 10 - - 10.6 1027.6 0.0
17/04:00pm NW 17 23 - - - - 10 - - 10.9 1027.7 0.0
17/03:30pm NW 17 20 - - - - 10 - - 11.0 1027.7 0.0
17/03:00pm NW 17 21 - - - - 10 - - 11.1 1027.7 0.0
17/02:30pm NW 16 19 - - - - 10 - - 11.1 1028.0 0.0
17/02:00pm NW 16 21 - - - - 10 - - 11.4 1028.1 0.0
17/01:30pm NW 14 18 - - - - 10 - - 11.8 1028.2 0.0
17/01:00pm NW 13 16 - - - - 10 - - 11.3 1028.4 0.0
17/12:30pm NW 11 14 - - - - 10 - - 10.6 1028.6 0.0
17/12:00pm NNW 10 13 - - - - 10 - - 9.9 1028.7 0.0
17/11:30am NNW 8 10 - - - - 10 - - 10.0 1029.0 0.0
17/11:00am NNW 6 9 - - - - 10 - - 9.1 1028.9 0.0
17/10:30am NNW 5 7 - - - - 10 - - 9.0 1029.4 0.0
17/10:00am NNW 6 8 - - - - 10 - - 8.9 1029.3 0.0
17/09:30am E 2 4 - - - - 10 - - 8.1 1029.5 0.0
17/09:00am S 5 7 - - - - 10 - - 7.2 1029.5 0.2
17/08:30am S 6 7 - - - - 10 - - 6.0 1029.3 0.2
17/08:00am S 7 9 - - - - 10 - - 3.8 1029.0 0.2
17/07:30am SSE 8 9 - - - - 10 - - 1.3 1028.6 0.2
17/07:00am S 8 10 - - - - 10 - - 0.0 1028.2 0.2
17/06:30am S 6 7 - - - - 10 - - -0.6 1027.9 0.2
17/06:00am S 8 9 - - - - 10 - - -0.5 1027.5 0.2
17/05:30am S 7 8 - - - - 10 - - -0.7 1027.2 0.2
17/05:00am S 4 6 - - - - 10 - - -0.4 1027.0 0.2
17/04:30am SSW 7 9 - - - - 10 - - 0.3 1026.7 0.2
17/04:00am S 7 8 - - - - 10 - - 0.2 1026.6 0.2
17/03:30am S 7 8 - - - - 10 - - 0.2 1026.6 0.2
17/03:00am S 6 7 - - - - 10 - - 0.2 1026.6 0.2
17/02:30am SSE 5 5 - - - - 10 - - 0.4 1026.7 0.2
17/02:00am SSE 6 7 - - - - 10 - - 0.7 1026.7 0.2
17/01:30am SSE 5 5 - - - - 10 - - 1.5 1026.8 0.2
17/01:00am SE 2 5 - - - - 10 - - 2.0 1026.9 0.2
17/12:30am S 6 8 - - - - 10 - - 1.5 1026.7 0.2
17/12:00am SSE 6 7 - - - - 10 - - 2.6 1026.4 0.2
 
Date/Time
EST
Wind Sea
Height
m
Swell Vis
km
Cloud Weather Temp
°C
Press
hPa
Rain since
9am
mm
Dir  Spd
kts
Gust
kts
Height
m
Period
s
Dir
16/11:30pm SSE 6 7 - - - - 10 - - 2.0 1026.1 0.2
16/11:00pm S 7 7 - - - - 10 - - 2.9 1026.3 0.2
16/10:30pm SSW 7 7 - - - - 10 - - 4.0 1026.0 0.2
16/10:00pm SSW 8 11 - - - - 10 - - 5.7 1025.6 0.2
16/09:30pm SW 10 14 - - - - 10 - - 6.3 1025.3 0.2
16/09:00pm SW 9 12 - - - - 10 - - 6.3 1025.3 0.2
16/08:30pm SW 9 12 - - - - 10 - - 6.5 1025.0 0.2
16/08:00pm SW 11 14 - - - - 10 - - 6.8 1024.5 0.2
16/07:30pm SW 8 11 - - - - 10 - - 7.5 1024.1 0.2
16/07:00pm SW 11 15 - - - - 10 - - 7.3 1023.3 0.2
16/06:30pm SW 8 11 - - - - 10 - - 7.3 1022.6 0.2
16/06:00pm SW 9 13 - - - - 10 - - 8.4 1022.1 0.2
16/05:30pm SW 10 15 - - - - 10 - - 10.2 1021.4 0.2
16/05:00pm SW 12 17 - - - - 10 - - 10.9 1020.6 0.2
16/04:30pm SW 12 19 - - - - 10 - - 11.3 1020.2 0.2
16/04:00pm SSW 14 21 - - - - 10 Partly cloudy - 11.5 1019.9 0.2
16/03:30pm SSW 13 21 - - - - 10 Partly cloudy - 12.0 1019.4 0.2
16/03:00pm SW 15 21 - - - - 10 Partly cloudy - 12.7 1018.9 0.2
16/02:30pm SW 14 21 - - - - 10 Partly cloudy - 12.5 1018.5 0.2
16/02:00pm SSW 11 18 - - - - 10 - - 11.9 1018.3 0.2
16/01:30pm SW 14 22 - - - - 10 - - 12.1 1018.1 0.2
16/01:00pm SW 15 24 - - - - 10 Partly cloudy - 11.7 1017.7 0.2
16/12:30pm SW 17 23 - - - - 10 - - 11.7 1017.5 0.2
16/12:00pm WSW 15 21 - - - - 10 Partly cloudy Recent precip. 11.8 1017.2 0.2
16/11:30am SW 12 18 - - - - 10 - - 11.4 1017.2 0.0
16/11:00am SW 14 20 - - - - 10 - - 11.1 1017.0 0.0
16/10:30am SSW 15 21 - - - - 10 - - 10.7 1016.6 0.0
16/10:00am SW 17 24 - - - - 10 Partly cloudy - 10.9 1016.3 0.0
16/09:30am SW 15 20 - - - - 10 - - 10.4 1015.9 0.0
16/09:00am WSW 18 23 - - - - 10 - - 9.5 1015.5 0.0
16/08:44am SW 16 26 - - - - 10 - - 9.5 1015.2 0.0
16/08:30am SW 14 20 - - - - 10 - - 9.3 1015.0 0.0
16/08:00am SW 13 16 - - - - 10 - - 8.5 1014.4 0.0
16/07:30am SW 7 11 - - - - 10 - - 8.0 1014.0 0.0
16/07:00am WSW 12 16 - - - - 10 - - 6.9 1013.6 0.0
16/06:30am W 14 22 - - - - 10 - - 7.2 1012.9 0.0
16/06:00am WSW 15 18 - - - - 10 Mostly cloudy Drizzle 7.2 1012.2 0.0
16/05:30am WSW 15 24 - - - - 10 - - 7.3 1011.6 0.0
16/05:07am WSW 19 29 - - - - 10 Partly cloudy - 7.3 1011.3 0.0
16/05:00am W 19 26 - - - - 10 Partly cloudy - 8.1 1011.2 0.0
16/04:30am W 19 29 - - - - 10 - - 8.5 1009.9 0.0
16/04:01am W 17 27 - - - - 10 Partly cloudy - 8.5 1009.5 0.0
16/04:00am W 17 23 - - - - 10 Partly cloudy - 8.5 1009.5 0.0
16/03:30am W 16 19 - - - - 10 - - 8.9 1008.9 0.0
16/03:00am W 18 22 - - - - 10 - - 8.7 1008.5 0.0
16/02:30am W 19 27 - - - - 10 - - 9.3 1008.4 0.0
16/02:00am WNW 18 22 - - - - 10 - - 9.5 1008.5 0.0
16/01:30am W 20 27 - - - - 10 Partly cloudy - 9.5 1008.8 0.0
16/01:19am W 19 29 - - - - 10 - - 9.5 1008.8 0.0
16/01:00am WNW 20 26 - - - - 10 - - 9.7 1008.7 0.0
16/12:30am WNW 21 26 - - - - 10 - - 9.7 1008.6 0.0
16/12:00am WNW 20 24 - - - - 10 Mostly clear - 10.0 1009.0 0.0
 
Date/Time
EST
Wind Sea
Height
m
Swell Vis
km
Cloud Weather Temp
°C
Press
hPa
Rain since
9am
mm
Dir  Spd
kts
Gust
kts
Height
m
Period
s
Dir
15/11:30pm WNW 18 23 - - - - 10 Partly cloudy - 9.9 1009.5 0.0
15/11:00pm WNW 15 20 - - - - 10 - - 9.7 1009.6 0.0
15/10:30pm W 10 14 - - - - 10 - - 8.8 1009.9 0.0
15/10:00pm W 7 10 - - - - 10 - - 8.1 1009.7 0.0
15/09:30pm W 10 14 - - - - 10 - - 8.7 1009.9 0.0
15/09:00pm W 12 15 - - - - 10 - - 9.4 1010.1 0.0
15/08:30pm W 19 25 - - - - 10 - - 10.6 1010.3 0.0
15/08:00pm W 13 18 - - - - 10 - - 11.0 1010.1 0.0
15/07:30pm WNW 13 16 - - - - 10 - - 11.5 1010.1 0.0
15/07:00pm W 11 15 - - - - 10 - - 11.5 1009.9 0.0
15/06:30pm WNW 15 18 - - - - 10 - - 12.1 1009.7 0.0
15/06:00pm WNW 15 18 - - - - 10 Partly cloudy - 12.3 1009.2 0.0
15/05:30pm WNW 15 18 - - - - 10 - - 12.5 1009.3 0.0
15/05:00pm NW 16 19 - - - - 10 - - 12.6 1009.0 0.0
15/04:30pm WNW 16 21 - - - - 10 Partly cloudy - 12.8 1009.0 0.0
15/04:00pm NW 17 23 - - - - 10 Partly cloudy - 12.6 1009.0 0.0
15/03:30pm NW 20 24 - - - - 10 Partly cloudy - 12.7 1009.3 0.0
15/03:00pm NW 21 26 - - - - 10 Cloudy - 13.1 1009.9 0.0
15/02:30pm NW 22 28 - - - - 10 Partly cloudy - 13.2 1010.0 0.0
15/02:00pm NW 21 29 - - - - 10 - - 13.0 1010.1 0.0
15/01:30pm NW 19 23 - - - - 10 Partly cloudy - 13.3 1010.3 0.0
15/01:00pm NW 18 22 - - - - 10 - - 13.9 1010.5 0.0
15/12:30pm NW 16 20 - - - - 10 - - 13.8 1010.4 0.0
15/12:00pm NW 17 20 - - - - 10 Partly cloudy - 13.8 1011.1 0.0
15/11:30am NW 17 21 - - - - 10 - - 14.0 1011.6 0.0
15/11:00am NW 17 20 - - - - 10 - - 14.5 1011.9 0.0
15/10:30am NW 16 19 - - - - 10 - - 14.3 1011.9 0.0
15/10:00am NW 16 20 - - - - 10 - - 14.0 1011.9 0.0
15/09:30am NW 18 21 - - - - 10 - - 14.0 1012.2 0.0
15/09:00am NW 17 21 - - - - 10 Mostly cloudy - 13.0 1012.3 0.2
15/08:30am NW 14 18 - - - - 10 - - 13.3 1012.4 0.2
15/08:00am WNW 13 17 - - - - 10 Partly cloudy - 12.8 1012.5 0.2
15/07:30am WNW 14 16 - - - - 10 Partly cloudy - 12.5 1012.2 0.2
15/07:00am WNW 15 17 - - - - 10 Partly cloudy - 12.1 1012.1 0.2
15/06:58am WNW 14 17 - - - - 10 Partly cloudy - 12.1 1012.1 0.2
15/06:30am WNW 15 21 - - - - 9 Cloudy - 11.9 1012.0 0.2
15/06:00am WNW 16 19 - - - - 9 Mostly cloudy - 11.9 1012.0 0.2
15/05:38am NW 15 20 - - - - 10 Partly cloudy - 11.8 1011.9 0.2
15/05:30am NW 14 19 - - - - 10 Partly cloudy - 11.7 1011.6 0.2
15/05:00am NW 13 16 - - - - 8 Partly cloudy - 11.7 1011.8 0.2
15/04:55am NW 14 17 - - - - 8 Partly cloudy - 11.8 1011.8 0.2
15/04:30am WNW 14 18 - - - - 7 Cloudy - 11.7 1012.3 0.2
15/04:15am WNW 14 18 - - - - 7 Cloudy - 11.7 1012.4 0.2
15/04:00am WNW 13 15 - - - - 6 Cloudy - 11.6 1012.1 0.2
15/03:30am WNW 11 14 - - - - 6 Cloudy - 11.5 1012.1 0.0
15/03:22am WNW 12 16 - - - - 6 Cloudy - 11.6 1012.5 0.0
15/03:00am WNW 11 14 - - - - 7 Cloudy Drizzle 11.6 1012.9 0.0
15/02:30am NW 12 15 - - - - 7 Cloudy - 11.5 1013.0 0.0
15/02:00am WNW 10 12 - - - - 9 Cloudy - 11.4 1013.7 0.0
15/01:30am NW 11 14 - - - - 10 Cloudy - 11.2 1014.4 0.0
15/01:00am NW 11 13 - - - - 10 Partly cloudy - 11.2 1015.0 0.0
15/12:56am NW 11 14 - - - - 10 Partly cloudy - 11.2 1015.2 0.0
15/12:30am NW 13 17 - - - - 10 Cloudy - 11.2 1015.6 0.0
15/12:00am WNW 13 16 - - - - 10 Cloudy - 11.1 1016.0 0.0
 
Date/Time
EST
Wind Sea
Height
m
Swell Vis
km
Cloud Weather Temp
°C
Press
hPa
Rain since
9am
mm
Dir  Spd
kts
Gust
kts
Height
m
Period
s
Dir
14/11:30pm WNW 14 17 - - - - 10 Partly cloudy - 10.9 1016.4 0.0
14/11:00pm WNW 16 19 - - - - 10 Partly cloudy - 10.9 1016.6 0.0

Other formats

Comma delimited format used in spreadsheet applications
http://www.bom.gov.au/fwo/IDV60701/IDV60701.95960.axf

JavaScript Object Notation format (JSON) in row-major order
http://www.bom.gov.au/fwo/IDV60701/IDV60701.95960.json

Data quality

Most of these data are generated automatically and are frequently updated. Quality checks on data are not normally performed. It is possible for incorrect values to appear. Refer to information at About Latest Weather Observations and please check the disclaimer before using these data.